Terminal Aerodrome Forecast
Issued by NWS

Home | Current Version | Previous Version | Text Only | Print | Product List | Glossary On
Versions: 1 2 3 4 5 6 7 8 9 10 11 12 13 14 15 16 17 18 19 20
175
FTUS44 KLZK 052320
TAFBPK
TAF
KBPK 052320Z 0600/0624 15008KT P6SM SCT025 OVC100
     FM060200 11005KT 4SM BR VCSH OVC050
     FM060500 VRB03KT 2SM -RA BR BKN015 OVC025
      TEMPO 0605/0609 3/4SM -RA BR OVC005
     FM061100 32010G18KT 2SM BR OVC015 PROB30 0612/0618 2SM -DZ BR
     FM061800 35008G15KT P6SM SCT015 BKN250=

USA.gov is the U.S. government's official web portal to all federal, state and local government web resources and services.